Time;durP1;ratioP1;P1;durP2;ratioP2;P2;SDS_P1;SDS_P2;PMS_P1;PMS_P2;Temp;Humidity;BMP_temperature;BMP_pressure;BME280_temperature;BME280_humidity;BME280_pressure;Samples;Min_cycle;Max_cycle;Signal;HPM_P1;HPM_P2
2023/03/06 00:00:25;;;;;;;10.70;2.45;;;2.70;99.90;;;;;;5074164;28;20042;-61
2023/03/06 00:02:51;;;;;;;9.43;2.20;;;2.70;99.90;;;;;;5064889;28;20036;-61
2023/03/06 00:05:16;;;;;;;12.23;2.53;;;2.70;99.90;;;;;;5064844;28;20455;-61
2023/03/06 00:07:42;;;;;;;7.15;2.13;;;2.70;99.90;;;;;;5064522;28;20056;-62
2023/03/06 00:10:14;;;;;;;10.88;2.83;;;2.70;99.90;;;;;;5062659;28;20078;-61
2023/03/06 00:12:39;;;;;;;8.88;2.28;;;2.70;99.90;;;;;;5063859;28;20040;-61
2023/03/06 00:15:05;;;;;;;8.43;2.40;;;2.70;99.90;;;;;;5064327;28;20098;-60
2023/03/06 00:17:31;;;;;;;9.90;2.75;;;2.70;99.90;;;;;;5064154;28;20032;-61
2023/03/06 00:19:56;;;;;;;9.23;2.75;;;2.70;99.90;;;;;;5073803;28;20097;-61
2023/03/06 00:22:22;;;;;;;10.77;2.90;;;2.70;99.90;;;;;;5084488;28;20052;-61
2023/03/06 00:24:48;;;;;;;8.88;2.33;;;2.70;99.90;;;;;;5074063;28;20241;-61
2023/03/06 00:27:13;;;;;;;14.88;3.22;;;2.70;99.90;;;;;;5063562;28;20833;-60
2023/03/06 00:29:39;;;;;;;10.13;2.65;;;2.70;99.90;;;;;;5070308;28;20460;-61
2023/03/06 00:32:05;;;;;;;9.70;2.47;;;2.70;99.90;;;;;;5063721;28;20039;-61
2023/03/06 00:34:30;;;;;;;7.50;2.03;;;2.70;99.90;;;;;;5063704;28;20082;-61
2023/03/06 00:36:56;;;;;;;8.25;2.40;;;2.70;99.90;;;;;;5078571;28;20036;-60
2023/03/06 00:39:22;;;;;;;8.98;2.25;;;2.70;99.90;;;;;;5078145;28;20123;-61
2023/03/06 00:41:47;;;;;;;7.68;2.50;;;2.70;99.90;;;;;;5062991;28;20037;-61
2023/03/06 00:44:13;;;;;;;7.78;2.10;;;2.70;99.90;;;;;;5063140;28;20048;-61
2023/03/06 00:46:39;;;;;;;7.80;2.22;;;2.70;99.90;;;;;;5083608;28;20126;-61
2023/03/06 00:49:04;;;;;;;9.25;2.20;;;2.70;99.90;;;;;;5060551;28;20055;-60
2023/03/06 00:51:30;;;;;;;10.27;2.50;;;2.70;99.90;;;;;;5063598;28;20037;-60
2023/03/06 00:53:55;;;;;;;5.45;2.20;;;2.70;99.90;;;;;;5060499;28;20041;-60
2023/03/06 00:56:21;;;;;;;6.57;2.30;;;2.70;99.90;;;;;;5062660;28;20345;-60
2023/03/06 00:58:46;;;;;;;7.28;2.00;;;2.70;99.90;;;;;;5063424;28;20123;-60
2023/03/06 01:01:12;;;;;;;12.02;2.72;;;2.70;99.90;;;;;;5063141;28;20483;-60
2023/03/06 01:03:38;;;;;;;10.50;3.65;;;2.60;99.90;;;;;;5062663;28;20672;-60
2023/03/06 01:06:03;;;;;;;9.13;2.05;;;2.60;99.90;;;;;;5045445;28;20055;-59
2023/03/06 01:08:29;;;;;;;7.57;2.42;;;2.50;99.90;;;;;;5063375;28;20113;-60
2023/03/06 01:10:54;;;;;;;7.63;2.53;;;2.50;99.90;;;;;;5063444;28;20652;-60
2023/03/06 01:13:20;;;;;;;9.32;2.30;;;2.50;99.90;;;;;;5063287;28;20029;-59
2023/03/06 01:15:46;;;;;;;7.47;2.22;;;2.50;99.90;;;;;;5063334;28;20071;-58
2023/03/06 01:18:11;;;;;;;12.15;2.70;;;2.40;99.90;;;;;;5063165;28;20586;-59
2023/03/06 01:20:37;;;;;;;12.32;2.58;;;2.40;99.90;;;;;;5077918;28;20051;-59
2023/03/06 01:23:02;;;;;;;10.25;2.42;;;2.40;99.90;;;;;;5083348;28;20047;-59
2023/03/06 01:25:28;;;;;;;8.27;2.30;;;2.40;99.90;;;;;;5068748;28;20040;-58
2023/03/06 01:27:54;;;;;;;7.90;2.60;;;2.40;99.90;;;;;;5062980;28;20482;-59
2023/03/06 01:30:20;;;;;;;8.18;2.33;;;2.30;99.90;;;;;;5062988;28;20040;-58
2023/03/06 01:32:45;;;;;;;9.25;2.58;;;2.30;99.90;;;;;;5063018;28;20044;-59
2023/03/06 01:35:12;;;;;;;12.23;2.97;;;2.20;99.90;;;;;;5074615;28;20120;-60
2023/03/06 01:37:39;;;;;;;11.63;2.60;;;2.20;99.90;;;;;;5083635;28;20086;-59
2023/03/06 01:40:07;;;;;;;13.40;2.72;;;2.20;99.90;;;;;;5077397;28;20027;-59
2023/03/06 01:42:32;;;;;;;12.82;2.92;;;2.20;99.90;;;;;;5082341;28;20044;-59
2023/03/06 01:45:07;;;;;;;7.90;2.30;;;2.20;99.90;;;;;;5076356;28;20062;-59
2023/03/06 01:47:32;;;;;;;8.70;2.67;;;2.20;99.90;;;;;;5062812;28;20579;-58
2023/03/06 01:50:00;;;;;;;6.18;2.40;;;2.20;99.90;;;;;;5062349;28;20048;-58
2023/03/06 01:52:33;;;;;;;7.53;2.85;;;2.20;99.90;;;;;;5062444;28;20400;-59
2023/03/06 01:55:09;;;;;;;11.00;2.47;;;2.20;99.90;;;;;;5059743;28;20079;-58
2023/03/06 01:57:40;;;;;;;10.80;2.95;;;2.20;99.90;;;;;;5062118;28;20052;-59
2023/03/06 02:00:19;;;;;;;8.95;2.42;;;2.20;99.90;;;;;;5064138;28;20036;-58
2023/03/06 02:03:02;;;;;;;6.57;2.65;;;2.20;99.90;;;;;;5063330;28;20056;-58
2023/03/06 02:05:28;;;;;;;8.50;2.75;;;2.20;99.90;;;;;;5063618;28;20578;-58
2023/03/06 02:07:55;;;;;;;8.68;2.50;;;2.20;99.90;;;;;;5066411;28;20040;-55
2023/03/06 02:10:21;;;;;;;7.65;2.75;;;2.20;99.90;;;;;;5063145;28;20732;-58
2023/03/06 02:12:48;;;;;;;9.35;3.50;;;2.10;99.90;;;;;;5065697;28;20037;-59
2023/03/06 02:15:16;;;;;;;9.18;3.28;;;2.00;99.90;;;;;;5073757;28;20043;-58
2023/03/06 02:17:44;;;;;;;11.48;3.38;;;1.90;99.90;;;;;;5086682;28;20545;-58
2023/03/06 02:20:25;;;;;;;11.68;3.88;;;1.80;99.90;;;;;;5073623;28;20040;-58
2023/03/06 02:23:27;;;;;;;5.47;2.65;;;1.70;99.90;;;;;;5066537;28;20182;-59
2023/03/06 02:25:53;;;;;;;10.38;3.15;;;1.60;99.90;;;;;;5066834;28;20095;-57
2023/03/06 02:28:21;;;;;;;11.38;3.30;;;1.60;99.90;;;;;;5066014;28;20044;-57
2023/03/06 02:30:49;;;;;;;6.38;2.80;;;1.50;99.90;;;;;;5078163;28;20127;-57
2023/03/06 02:33:17;;;;;;;7.45;2.50;;;1.50;99.90;;;;;;5086232;28;20044;-58
2023/03/06 02:35:49;;;;;;;7.25;2.67;;;1.50;99.90;;;;;;5069688;28;20202;-57
2023/03/06 02:38:18;;;;;;;6.88;2.70;;;1.50;99.90;;;;;;5065504;28;20048;-58
2023/03/06 02:40:48;;;;;;;8.85;2.60;;;1.50;99.90;;;;;;5066417;28;20044;-59
2023/03/06 02:43:17;;;;;;;5.30;2.38;;;1.40;99.90;;;;;;5065768;28;20036;-58
2023/03/06 02:45:46;;;;;;;5.97;2.00;;;1.40;99.90;;;;;;5066190;28;20660;-57
2023/03/06 02:48:14;;;;;;;4.85;2.25;;;1.40;99.90;;;;;;5066213;28;20040;-58
2023/03/06 02:50:40;;;;;;;7.43;2.65;;;1.30;99.90;;;;;;5063688;28;20052;-59
2023/03/06 02:53:07;;;;;;;8.73;3.13;;;1.20;99.90;;;;;;5065735;28;20029;-57
2023/03/06 02:55:33;;;;;;;10.65;3.80;;;1.20;99.90;;;;;;5063905;28;20052;-58
2023/03/06 02:57:59;;;;;;;10.13;3.90;;;1.10;99.90;;;;;;5065412;28;20270;-57
2023/03/06 03:00:25;;;;;;;8.48;3.28;;;1.00;99.90;;;;;;5074419;28;20429;-57
2023/03/06 03:02:51;;;;;;;8.95;3.13;;;1.00;99.90;;;;;;5085854;28;20051;-58
2023/03/06 03:05:17;;;;;;;9.32;3.08;;;0.90;99.90;;;;;;5078798;28;20044;-58
2023/03/06 03:07:43;;;;;;;7.50;2.90;;;0.90;99.90;;;;;;5085672;28;20575;-57
2023/03/06 03:10:09;;;;;;;8.40;2.75;;;0.90;99.90;;;;;;5082425;28;20026;-59
2023/03/06 03:12:35;;;;;;;6.30;2.70;;;0.80;99.90;;;;;;5085359;28;20093;-56
2023/03/06 03:15:01;;;;;;;8.43;2.65;;;0.80;99.90;;;;;;5079366;28;20037;-58
2023/03/06 03:17:26;;;;;;;7.65;2.85;;;0.80;99.90;;;;;;5064133;28;20615;-58
2023/03/06 03:19:52;;;;;;;7.47;2.88;;;0.80;99.90;;;;;;5063198;28;20048;-57
2023/03/06 03:22:18;;;;;;;6.60;2.20;;;0.80;99.90;;;;;;5065287;28;20315;-58
2023/03/06 03:24:44;;;;;;;7.65;2.35;;;0.70;99.90;;;;;;5063265;28;20028;-58
2023/03/06 03:27:10;;;;;;;7.07;2.20;;;0.70;99.90;;;;;;5064813;28;20060;-59
2023/03/06 03:29:36;;;;;;;8.50;2.83;;;0.70;99.90;;;;;;5064972;28;20059;-58
2023/03/06 03:32:02;;;;;;;7.35;2.55;;;0.70;99.90;;;;;;5064924;28;20048;-59
2023/03/06 03:34:27;;;;;;;6.20;2.08;;;0.60;99.90;;;;;;5070092;28;20036;-59
2023/03/06 03:36:53;;;;;;;6.63;2.42;;;0.60;99.90;;;;;;5085271;28;20150;-59
2023/03/06 03:39:19;;;;;;;7.05;2.20;;;0.60;99.90;;;;;;5080513;28;20083;-59
2023/03/06 03:41:45;;;;;;;6.55;2.30;;;0.50;99.90;;;;;;5065016;28;20044;-59
2023/03/06 03:44:11;;;;;;;5.38;2.20;;;0.60;99.90;;;;;;5064990;28;20055;-59
2023/03/06 03:46:37;;;;;;;6.40;2.35;;;0.50;99.90;;;;;;5065010;28;20040;-58
2023/03/06 03:49:03;;;;;;;6.25;2.03;;;0.60;99.90;;;;;;5064406;28;20067;-58
2023/03/06 03:51:28;;;;;;;8.32;2.35;;;0.60;99.90;;;;;;5065066;28;20085;-59
2023/03/06 03:53:55;;;;;;;7.15;2.17;;;0.50;99.90;;;;;;5068157;28;20778;-58
2023/03/06 03:56:21;;;;;;;6.18;2.13;;;0.50;99.90;;;;;;5064120;28;20609;-59
2023/03/06 03:58:47;;;;;;;8.07;2.10;;;0.50;99.90;;;;;;5064196;28;20040;-59
2023/03/06 04:01:13;;;;;;;6.45;2.28;;;0.50;99.90;;;;;;5064486;28;20036;-59
2023/03/06 04:03:38;;;;;;;8.20;2.50;;;0.50;99.90;;;;;;5063999;28;20037;-59
2023/03/06 04:06:04;;;;;;;7.05;2.00;;;0.50;99.90;;;;;;5064492;28;20052;-58
2023/03/06 04:08:30;;;;;;;6.13;2.40;;;0.50;99.90;;;;;;5062944;28;20871;-59
2023/03/06 04:10:55;;;;;;;10.75;1.98;;;0.50;99.90;;;;;;5064159;28;20040;-59
2023/03/06 04:13:22;;;;;;;5.80;2.03;;;0.40;99.90;;;;;;5064102;28;20043;-60
2023/03/06 04:15:50;;;;;;;5.28;2.20;;;0.50;99.90;;;;;;5064371;28;20127;-59
2023/03/06 04:18:15;;;;;;;6.43;2.40;;;0.40;99.90;;;;;;5064120;28;20546;-60
2023/03/06 04:20:43;;;;;;;8.07;2.40;;;0.40;99.90;;;;;;5063903;28;20101;-59
2023/03/06 04:23:08;;;;;;;6.30;2.40;;;0.40;99.90;;;;;;5083303;28;20714;-60
2023/03/06 04:25:34;;;;;;;7.13;2.20;;;0.40;99.90;;;;;;5082146;28;20075;-59
2023/03/06 04:28:00;;;;;;;6.32;2.10;;;0.40;99.90;;;;;;5083855;28;20649;-59
2023/03/06 04:30:26;;;;;;;8.05;2.30;;;0.40;99.90;;;;;;5073915;28;20032;-60
2023/03/06 04:32:51;;;;;;;6.15;2.45;;;0.40;99.90;;;;;;5084497;28;20043;-59
2023/03/06 04:35:17;;;;;;;7.90;3.05;;;0.40;99.90;;;;;;5071138;28;20041;-60
2023/03/06 04:37:43;;;;;;;11.50;3.45;;;0.30;99.90;;;;;;5063784;28;20048;-59
2023/03/06 04:40:17;;;;;;;8.43;3.60;;;0.30;99.90;;;;;;5061969;28;20032;-59
2023/03/06 04:42:42;;;;;;;;;;;0.30;99.90;;;;;;5064349;28;20495;-59
2023/03/06 04:45:08;;;;;;;11.05;3.55;;;0.40;99.90;;;;;;5063751;28;19927;-60
2023/03/06 04:47:34;;;;;;;7.80;3.28;;;0.40;99.90;;;;;;5063885;28;20649;-59
2023/03/06 04:50:00;;;;;;;10.98;4.25;;;0.30;99.90;;;;;;5063076;28;20044;-58
2023/03/06 04:52:25;;;;;;;7.72;3.15;;;0.30;99.90;;;;;;5063498;28;20108;-59
2023/03/06 04:54:51;;;;;;;8.23;2.97;;;0.40;99.90;;;;;;5061996;28;20095;-60
2023/03/06 04:57:16;;;;;;;7.65;3.20;;;0.40;99.90;;;;;;5061587;28;20489;-59
2023/03/06 04:59:42;;;;;;;9.80;3.22;;;0.30;99.90;;;;;;5063240;28;20630;-59
2023/03/06 05:02:08;;;;;;;9.68;3.80;;;0.40;99.90;;;;;;5063313;28;20447;-58
2023/03/06 05:04:33;;;;;;;8.65;3.63;;;0.30;99.90;;;;;;5062882;28;20037;-58
2023/03/06 05:06:59;;;;;;;9.27;3.58;;;0.40;99.90;;;;;;5062938;28;20590;-59
2023/03/06 05:09:24;;;;;;;7.72;3.33;;;0.40;99.90;;;;;;5060875;28;20048;-59
2023/03/06 05:11:50;;;;;;;15.25;3.95;;;0.40;99.90;;;;;;5062623;28;20443;-58
2023/03/06 05:14:15;;;;;;;8.88;3.30;;;0.40;99.90;;;;;;5063155;28;20040;-58
2023/03/06 05:16:41;;;;;;;12.18;3.70;;;0.40;99.90;;;;;;5062914;28;20123;-59
2023/03/06 05:19:07;;;;;;;12.45;3.97;;;0.50;99.90;;;;;;5062087;28;20032;-59
2023/03/06 05:21:32;;;;;;;11.15;3.63;;;0.50;99.90;;;;;;5063137;28;20591;-59
2023/03/06 05:23:58;;;;;;;9.43;3.42;;;0.50;99.90;;;;;;5061445;28;20040;-59
2023/03/06 05:26:23;;;;;;;10.98;3.97;;;0.50;99.90;;;;;;5062626;28;20533;-59
2023/03/06 05:28:49;;;;;;;12.90;4.22;;;0.50;99.90;;;;;;5063257;28;20120;-59
2023/03/06 05:31:15;;;;;;;11.98;3.90;;;0.50;99.90;;;;;;5063356;28;20137;-59
2023/03/06 05:33:41;;;;;;;12.00;4.22;;;0.50;99.90;;;;;;5062714;28;20032;-59
2023/03/06 05:36:08;;;;;;;13.88;4.32;;;0.50;99.90;;;;;;5081091;28;20100;-59
2023/03/06 05:38:34;;;;;;;10.63;3.53;;;0.50;99.90;;;;;;5080647;28;20040;-60
2023/03/06 05:40:59;;;;;;;12.05;4.15;;;0.50;99.90;;;;;;5069282;28;20514;-59
2023/03/06 05:43:25;;;;;;;13.60;4.40;;;0.50;99.90;;;;;;5067131;28;20049;-60
2023/03/06 05:46:00;;;;;;;14.48;4.55;;;0.50;99.90;;;;;;5079170;28;20040;-59
2023/03/06 05:48:25;;;;;;;19.05;4.97;;;0.50;99.90;;;;;;5086837;28;20040;-59
2023/03/06 05:50:56;;;;;;;16.83;4.60;;;0.50;99.90;;;;;;5070862;28;20051;-59
2023/03/06 05:53:22;;;;;;;14.85;5.07;;;0.50;99.90;;;;;;5065874;28;20043;-60
2023/03/06 05:55:55;;;;;;;19.27;4.53;;;0.50;99.90;;;;;;5066442;28;20539;-58
2023/03/06 05:58:21;;;;;;;21.13;5.32;;;0.50;99.90;;;;;;5065917;28;20053;-59
2023/03/06 06:00:47;;;;;;;19.58;6.00;;;0.50;99.90;;;;;;5077389;28;20047;-59
2023/03/06 06:03:12;;;;;;;16.27;5.05;;;0.50;99.90;;;;;;5086584;28;20035;-59
2023/03/06 06:05:38;;;;;;;16.17;4.47;;;0.50;99.90;;;;;;5072197;28;20074;-59
2023/03/06 06:08:04;;;;;;;13.75;5.13;;;0.50;99.90;;;;;;5065378;28;20036;-60
2023/03/06 06:10:29;;;;;;;19.63;5.22;;;0.50;99.90;;;;;;5064893;28;20137;-59
2023/03/06 06:12:55;;;;;;;14.95;5.75;;;0.40;99.90;;;;;;5066090;28;20043;-59
2023/03/06 06:15:20;;;;;;;19.88;4.93;;;0.40;99.90;;;;;;5066769;28;20112;-60
2023/03/06 06:17:46;;;;;;;12.43;5.05;;;0.40;99.90;;;;;;5065248;28;20082;-60
2023/03/06 06:20:13;;;;;;;18.70;5.53;;;0.40;99.90;;;;;;5066183;28;20067;-59
2023/03/06 06:22:38;;;;;;;16.67;5.35;;;0.40;99.90;;;;;;5074088;28;20035;-60
2023/03/06 06:25:05;;;;;;;14.18;4.93;;;0.50;99.90;;;;;;5077031;28;20624;-59
2023/03/06 06:27:30;;;;;;;20.10;6.50;;;0.50;99.90;;;;;;5066467;28;20044;-59
2023/03/06 06:29:56;;;;;;;18.98;6.03;;;0.50;99.90;;;;;;5065724;28;20121;-60
2023/03/06 06:32:22;;;;;;;15.38;5.07;;;0.50;99.90;;;;;;5066074;28;20040;-58
2023/03/06 06:34:47;;;;;;;17.73;5.65;;;0.50;99.90;;;;;;5066120;28;20036;-60
2023/03/06 06:37:13;;;;;;;17.45;5.60;;;0.40;99.90;;;;;;5066319;28;20113;-58
2023/03/06 06:39:39;;;;;;;15.57;5.65;;;0.40;99.90;;;;;;5046416;28;20032;-59
2023/03/06 06:42:05;;;;;;;16.92;5.60;;;0.40;99.90;;;;;;5072272;28;20061;-59
2023/03/06 06:44:30;;;;;;;17.75;5.85;;;0.40;99.90;;;;;;5085542;28;20618;-59
2023/03/06 06:46:56;;;;;;;18.08;5.97;;;0.30;99.90;;;;;;5064222;28;20048;-60
2023/03/06 06:49:22;;;;;;;16.42;5.47;;;0.30;99.90;;;;;;5069178;28;20119;-59
2023/03/06 06:51:47;;;;;;;18.38;6.15;;;0.30;99.90;;;;;;5085847;28;20130;-59
2023/03/06 06:54:13;;;;;;;17.63;6.32;;;0.30;99.90;;;;;;5077405;28;20111;-59
2023/03/06 06:56:38;;;;;;;15.57;5.60;;;0.30;99.90;;;;;;5084271;28;20461;-59
2023/03/06 06:59:04;;;;;;;16.00;5.47;;;0.30;99.90;;;;;;5085544;28;20600;-59
2023/03/06 07:01:30;;;;;;;18.67;6.30;;;0.20;99.90;;;;;;5083626;28;20036;-60
2023/03/06 07:03:56;;;;;;;19.90;6.40;;;0.30;99.90;;;;;;5083621;28;20052;-59
2023/03/06 07:06:22;;;;;;;18.25;5.97;;;0.30;99.90;;;;;;5084144;28;20495;-58
2023/03/06 07:08:47;;;;;;;16.15;5.95;;;0.40;99.90;;;;;;5080854;28;20097;-59
2023/03/06 07:11:16;;;;;;;19.25;6.55;;;0.40;99.90;;;;;;5082144;28;20139;-59
2023/03/06 07:13:42;;;;;;;21.63;6.53;;;0.50;99.90;;;;;;5085302;28;20040;-60
2023/03/06 07:16:08;;;;;;;15.35;5.38;;;0.50;99.90;;;;;;5069908;28;20075;-60
2023/03/06 07:18:33;;;;;;;15.98;5.65;;;0.60;99.90;;;;;;5064460;28;20413;-59
2023/03/06 07:20:59;;;;;;;13.52;5.70;;;0.60;99.90;;;;;;5068851;28;20037;-60
2023/03/06 07:23:25;;;;;;;15.50;5.28;;;0.70;99.90;;;;;;5064132;28;20660;-61
2023/03/06 07:25:52;;;;;;;12.15;4.75;;;0.70;99.90;;;;;;5065111;28;20047;-60
2023/03/06 07:28:18;;;;;;;12.57;5.63;;;0.80;99.90;;;;;;5064333;28;20117;-61
2023/03/06 07:30:44;;;;;;;11.45;4.55;;;0.80;99.90;;;;;;5068742;28;20539;-59
2023/03/06 07:33:12;;;;;;;13.32;4.63;;;0.80;99.90;;;;;;5064186;28;20045;-60
2023/03/06 07:35:40;;;;;;;13.40;5.43;;;0.90;99.90;;;;;;5065022;28;20055;-60
2023/03/06 07:38:05;;;;;;;13.40;5.15;;;0.90;99.90;;;;;;5068784;28;20039;-60
2023/03/06 07:40:31;;;;;;;13.55;5.07;;;1.00;99.90;;;;;;5080309;28;20044;-60
2023/03/06 07:42:57;;;;;;;11.80;5.30;;;1.10;99.90;;;;;;5084582;28;20040;-59
2023/03/06 07:45:23;;;;;;;10.85;4.45;;;1.30;99.90;;;;;;5081434;28;20040;-60
2023/03/06 07:47:50;;;;;;;10.93;4.18;;;1.30;99.90;;;;;;5084493;28;20530;-60
2023/03/06 07:50:16;;;;;;;11.48;4.32;;;1.50;99.90;;;;;;5073152;28;20447;-60
2023/03/06 07:52:41;;;;;;;10.27;4.35;;;1.60;99.90;;;;;;5070757;28;20039;-60
2023/03/06 07:55:08;;;;;;;8.30;3.65;;;1.80;99.90;;;;;;5075022;28;20472;-58
2023/03/06 07:57:34;;;;;;;8.43;3.78;;;2.00;99.90;;;;;;5064248;28;20049;-58
2023/03/06 08:00:00;;;;;;;9.43;3.72;;;2.00;99.90;;;;;;5068215;28;20036;-59
2023/03/06 08:02:25;;;;;;;10.75;3.75;;;2.20;99.90;;;;;;5084404;28;20040;-59
2023/03/06 08:04:53;;;;;;;7.35;3.17;;;2.30;99.90;;;;;;5074021;28;20033;-59
2023/03/06 08:07:19;;;;;;;7.10;2.78;;;2.50;99.90;;;;;;5076013;28;20075;-59
2023/03/06 08:09:44;;;;;;;8.93;2.63;;;2.60;99.90;;;;;;5080653;28;20129;-60
2023/03/06 08:12:10;;;;;;;7.57;2.50;;;2.90;99.90;;;;;;5082620;28;20044;-59
2023/03/06 08:14:35;;;;;;;6.03;2.38;;;3.20;99.90;;;;;;5082812;28;20093;-59
2023/03/06 08:17:01;;;;;;;6.15;1.88;;;3.70;99.90;;;;;;5064183;28;20037;-58
2023/03/06 08:19:27;;;;;;;7.15;1.80;;;4.20;99.90;;;;;;5063997;28;20086;-60
2023/03/06 08:21:52;;;;;;;6.15;2.03;;;4.50;99.90;;;;;;5072494;28;20036;-60
2023/03/06 08:24:18;;;;;;;4.45;1.73;;;4.80;99.90;;;;;;5081121;28;20059;-60
2023/03/06 08:26:44;;;;;;;6.32;1.77;;;5.10;99.90;;;;;;5079738;28;20097;-60
2023/03/06 08:29:10;;;;;;;5.70;2.20;;;5.40;99.90;;;;;;5072939;28;20109;-61
2023/03/06 08:31:39;;;;;;;5.18;1.70;;;5.60;99.90;;;;;;5067634;28;20024;-60
2023/03/06 08:34:10;;;;;;;5.85;1.63;;;5.80;99.90;;;;;;5065609;28;20609;-60
2023/03/06 08:36:36;;;;;;;5.43;1.70;;;5.80;99.90;;;;;;5064977;28;20036;-60
2023/03/06 08:39:02;;;;;;;10.15;1.85;;;5.80;99.90;;;;;;5081590;28;20521;-59
2023/03/06 08:41:29;;;;;;;4.88;1.50;;;5.50;99.90;;;;;;5081884;28;20612;-60
2023/03/06 08:43:55;;;;;;;6.80;1.73;;;5.20;99.90;;;;;;5083882;28;20793;-60
2023/03/06 08:46:22;;;;;;;5.70;1.70;;;5.00;99.90;;;;;;5067771;28;20045;-61
2023/03/06 08:48:48;;;;;;;6.47;1.85;;;4.80;99.90;;;;;;5063711;28;20047;-60
2023/03/06 08:51:14;;;;;;;5.25;1.38;;;4.40;99.90;;;;;;5080241;28;20036;-61
2023/03/06 08:53:40;;;;;;;6.78;1.65;;;4.40;99.90;;;;;;5083200;28;20032;-60
2023/03/06 08:56:06;;;;;;;5.63;1.50;;;4.30;99.90;;;;;;5081161;28;20039;-60
2023/03/06 08:58:32;;;;;;;5.68;1.75;;;4.40;99.90;;;;;;5082063;28;20055;-60
2023/03/06 09:00:58;;;;;;;7.50;1.35;;;4.60;99.90;;;;;;5072968;28;20109;-60
2023/03/06 09:03:24;;;;;;;6.95;1.45;;;5.00;99.90;;;;;;5081465;28;20131;-61
2023/03/06 09:05:50;;;;;;;5.35;1.50;;;5.20;99.90;;;;;;5067608;28;20040;-61
2023/03/06 09:08:16;;;;;;;4.65;1.40;;;5.10;99.90;;;;;;5060886;28;20635;-60
2023/03/06 09:10:46;;;;;;;6.30;1.75;;;4.90;99.90;;;;;;5074013;28;20040;-60
2023/03/06 09:13:12;;;;;;;5.28;1.40;;;4.80;99.90;;;;;;5082478;28;20036;-60
2023/03/06 09:15:37;;;;;;;4.25;1.20;;;4.70;99.90;;;;;;5070192;28;20611;-61
2023/03/06 09:18:03;;;;;;;4.78;1.40;;;4.70;99.90;;;;;;5062872;28;20041;-60
2023/03/06 09:20:28;;;;;;;4.38;1.23;;;4.80;99.90;;;;;;5063351;28;20048;-60
2023/03/06 09:22:54;;;;;;;6.32;1.60;;;4.80;99.90;;;;;;5063858;28;20568;-61
2023/03/06 09:25:22;;;;;;;4.30;1.17;;;4.80;99.90;;;;;;5063363;28;20719;-61
2023/03/06 09:27:48;;;;;;;3.13;1.20;;;4.80;99.90;;;;;;5063243;28;20047;-61
2023/03/06 09:30:14;;;;;;;5.75;1.30;;;4.80;99.90;;;;;;5064224;28;20082;-62
2023/03/06 09:32:40;;;;;;;5.95;1.25;;;4.80;99.90;;;;;;5072909;28;20045;-61
2023/03/06 09:35:06;;;;;;;7.70;1.63;;;4.90;99.90;;;;;;5073953;28;20368;-61
2023/03/06 09:37:31;;;;;;;7.70;1.25;;;5.10;99.90;;;;;;5063551;28;20049;-61
2023/03/06 09:39:57;;;;;;;6.63;1.60;;;5.10;99.90;;;;;;5061372;28;20070;-61
2023/03/06 09:42:23;;;;;;;5.07;1.25;;;5.20;99.90;;;;;;5082615;28;20048;-61
2023/03/06 09:44:58;;;;;;;5.35;1.33;;;5.40;99.90;;;;;;5081131;28;20054;-61
2023/03/06 09:47:30;;;;;;;6.38;1.58;;;5.60;99.90;;;;;;5080299;28;20048;-61
2023/03/06 09:50:26;;;;;;;6.20;1.45;;;5.70;99.90;;;;;;5079646;28;20055;-62
2023/03/06 09:53:21;;;;;;;6.43;1.30;;;6.00;99.90;;;;;;5079067;28;20238;-62
2023/03/06 09:55:56;;;;;;;6.32;2.03;;;6.20;99.90;;;;;;5033832;28;20396;-62
2023/03/06 09:58:25;;;;;;;3.42;1.02;;;6.30;99.90;;;;;;5083442;28;20052;-62
2023/03/06 10:01:09;;;;;;;5.28;1.10;;;6.60;99.90;;;;;;5082325;28;20040;-63
2023/03/06 10:04:13;;;;;;;5.72;1.30;;;6.80;99.90;;;;;;5078919;28;20040;-62
2023/03/06 10:06:47;;;;;;;4.13;1.15;;;6.90;99.90;;;;;;5079904;28;20380;-62
2023/03/06 10:09:18;;;;;;;5.00;1.20;;;7.10;99.90;;;;;;5078730;28;20088;-62
2023/03/06 10:12:02;;;;;;;6.35;1.10;;;7.30;99.90;;;;;;5079433;28;20038;-63
2023/03/06 10:14:38;;;;;;;4.85;1.30;;;7.60;99.90;;;;;;5083090;28;20502;-62
2023/03/06 10:17:09;;;;;;;4.13;1.08;;;7.80;98.60;;;;;;5081849;28;20047;-63
2023/03/06 10:19:41;;;;;;;4.30;0.93;;;8.20;99.90;;;;;;5076273;28;20093;-63
2023/03/06 10:22:21;;;;;;;6.28;0.85;;;8.40;97.30;;;;;;5080207;28;20054;-63
2023/03/06 10:25:20;;;;;;;3.97;1.05;;;8.30;92.70;;;;;;5076278;28;20036;-63
2023/03/06 10:27:48;;;;;;;2.72;0.80;;;8.30;92.50;;;;;;5102076;28;20050;-63
2023/03/06 10:30:22;;;;;;;3.72;0.90;;;8.50;94.30;;;;;;5066364;28;20036;-63
2023/03/06 10:33:02;;;;;;;3.10;0.93;;;8.60;92.40;;;;;;5065273;28;20128;-63
2023/03/06 10:35:49;;;;;;;4.25;0.90;;;9.10;90.50;;;;;;5066906;28;20037;-63
2023/03/06 10:38:31;;;;;;;7.05;0.90;;;9.30;92.20;;;;;;5091009;28;20063;-63
2023/03/06 10:41:11;;;;;;;4.55;0.98;;;9.60;92.00;;;;;;5090166;28;20040;-63
2023/03/06 10:43:39;;;;;;;6.88;1.00;;;9.90;80.20;;;;;;5084488;28;20051;-63
2023/03/06 10:46:06;;;;;;;7.57;1.20;;;9.90;85.60;;;;;;5073667;28;20697;-63
2023/03/06 10:48:35;;;;;;;3.58;0.82;;;9.70;82.40;;;;;;5072830;28;20031;-64
2023/03/06 10:51:22;;;;;;;2.72;0.80;;;9.50;80.80;;;;;;5082842;28;20047;-62
2023/03/06 10:54:18;;;;;;;5.68;0.88;;;9.20;81.10;;;;;;5088660;28;20666;-63
2023/03/06 10:56:46;;;;;;;5.78;0.88;;;8.70;83.00;;;;;;5084883;28;20461;-63
2023/03/06 10:59:17;;;;;;;5.78;1.02;;;8.60;85.20;;;;;;5080895;28;20091;-63
2023/03/06 11:01:45;;;;;;;1.52;0.65;;;8.80;84.40;;;;;;5073691;28;20702;-63
2023/03/06 11:04:20;;;;;;;2.20;0.73;;;9.00;79.90;;;;;;5080143;28;20036;-62
2023/03/06 11:06:46;;;;;;;2.78;0.70;;;9.50;70.10;;;;;;5085950;28;20805;-63
2023/03/06 11:09:22;;;;;;;2.03;0.60;;;9.90;75.60;;;;;;5083690;28;20032;-64
2023/03/06 11:11:51;;;;;;;4.28;0.73;;;10.40;68.10;;;;;;5082201;28;20117;-63
2023/03/06 11:14:21;;;;;;;3.15;0.80;;;10.10;64.00;;;;;;5082352;28;20147;-63
2023/03/06 11:16:52;;;;;;;2.40;0.60;;;9.80;66.30;;;;;;5082533;28;20039;-63
2023/03/06 11:19:27;;;;;;;4.57;0.70;;;9.80;66.60;;;;;;5082026;28;20054;-63
2023/03/06 11:22:15;;;;;;;2.45;0.70;;;9.90;64.90;;;;;;5083369;28;20863;-63
2023/03/06 11:24:46;;;;;;;5.32;0.80;;;9.80;63.70;;;;;;5075036;28;20047;-62
2023/03/06 11:27:29;;;;;;;4.22;0.80;;;9.40;68.90;;;;;;5084064;28;20036;-63
2023/03/06 11:29:57;;;;;;;5.57;0.77;;;9.10;63.40;;;;;;5067671;28;20040;-63
2023/03/06 11:32:27;;;;;;;5.22;0.80;;;9.00;69.00;;;;;;5065323;28;20079;-63
2023/03/06 11:34:58;;;;;;;3.90;0.70;;;8.90;69.10;;;;;;5065335;28;20032;-62
2023/03/06 11:37:35;;;;;;;3.13;1.10;;;8.70;70.00;;;;;;5063805;28;20036;-63
2023/03/06 11:40:11;;;;;;;2.28;0.75;;;8.40;65.30;;;;;;5063108;28;20109;-63
2023/03/06 11:42:42;;;;;;;2.15;0.65;;;8.40;68.00;;;;;;5063377;28;20837;-63
2023/03/06 11:45:23;;;;;;;3.03;0.80;;;8.40;69.00;;;;;;5069169;28;20039;-63
2023/03/06 11:47:53;;;;;;;4.85;0.90;;;8.60;72.90;;;;;;5085078;28;20133;-63
2023/03/06 11:50:35;;;;;;;4.07;0.80;;;9.00;73.70;;;;;;5076179;28;20118;-63
2023/03/06 11:53:09;;;;;;;4.32;0.80;;;9.40;66.60;;;;;;5076017;28;20037;-62
2023/03/06 11:55:51;;;;;;;5.53;0.80;;;9.40;64.40;;;;;;5063620;28;20067;-63
2023/03/06 11:58:36;;;;;;;4.32;0.95;;;9.10;64.70;;;;;;5063924;28;20045;-62
2023/03/06 12:01:22;;;;;;;5.22;0.90;;;8.80;66.80;;;;;;5065082;28;20048;-63
2023/03/06 12:04:05;;;;;;;3.35;1.08;;;8.40;68.00;;;;;;5064516;28;20447;-62
2023/03/06 12:06:31;;;;;;;3.90;0.85;;;8.40;68.70;;;;;;5064893;28;20041;-63
2023/03/06 12:08:57;;;;;;;3.40;0.90;;;8.20;70.00;;;;;;5062902;28;20040;-63
2023/03/06 12:11:34;;;;;;;2.15;0.77;;;8.00;70.90;;;;;;5063026;28;20048;-62
2023/03/06 12:14:10;;;;;;;5.07;0.77;;;8.10;75.90;;;;;;5064233;28;20036;-63
2023/03/06 12:17:05;;;;;;;4.30;0.80;;;8.40;75.00;;;;;;5046241;28;20147;-63
2023/03/06 12:19:41;;;;;;;5.15;0.80;;;8.30;67.80;;;;;;5057813;28;20057;-62
2023/03/06 12:22:19;;;;;;;3.75;0.88;;;8.00;71.80;;;;;;5064589;28;20046;-63
2023/03/06 12:25:21;;;;;;;4.22;1.67;;;8.00;76.10;;;;;;5062512;28;20037;-62
2023/03/06 12:28:04;;;;;;;5.22;0.90;;;7.90;71.10;;;;;;5047389;28;20535;-63
2023/03/06 12:31:07;;;;;;;4.70;0.90;;;8.00;76.70;;;;;;5068750;28;20082;-62
2023/03/06 12:34:04;;;;;;;4.07;0.93;;;7.90;71.90;;;;;;5064136;28;20047;-62
2023/03/06 12:36:58;;;;;;;6.70;1.40;;;7.80;77.40;;;;;;5064730;28;20443;-63
2023/03/06 12:40:05;;;;;;;4.97;1.10;;;7.60;71.30;;;;;;5062342;28;20044;-63
2023/03/06 12:42:51;;;;;;;6.38;1.45;;;7.30;74.00;;;;;;5083428;28;20090;-63
2023/03/06 12:45:35;;;;;;;4.53;0.90;;;7.10;75.60;;;;;;5078543;28;20076;-62
2023/03/06 12:48:02;;;;;;;4.30;1.00;;;7.00;77.80;;;;;;5064082;28;20771;-63
2023/03/06 12:50:35;;;;;;;4.90;0.85;;;6.90;79.40;;;;;;5062706;28;20051;-63
2023/03/06 12:53:14;;;;;;;5.70;1.27;;;6.80;77.10;;;;;;5064173;28;20111;-62
2023/03/06 12:55:47;;;;;;;5.05;1.13;;;6.60;81.40;;;;;;5062578;28;20088;-63
2023/03/06 12:58:33;;;;;;;8.48;1.80;;;6.40;84.30;;;;;;5063046;28;20101;-63
2023/03/06 13:01:26;;;;;;;9.13;1.40;;;6.20;89.00;;;;;;5063614;28;20425;-63
2023/03/06 13:04:24;;;;;;;7.13;1.42;;;6.10;87.50;;;;;;5063518;28;20041;-64
2023/03/06 13:07:11;;;;;;;10.68;1.35;;;5.90;87.50;;;;;;5063468;28;20516;-63